Junction City, CA

1:06 AM PDT on October 20, 2014 (GMT -0700)
Arcata | Change Station
CLOSE
Current Station
Airport
Location: Arcata,
Elevation: 217 ft
Nearby Weather Stations
4.2 Earthquake: Rio Dell, California (17 hours ago)  

Elev 217 ft 40.98 °N, 124.10 °W | Updated 13 minutes ago

Overcast
Overcast
62 °F
Feels Like 62 °F
N
7
Wind Variable Wind from South

Today
High -- | Low -- °F
--% Chance of Precip.
Yesterday
High -- | Low -- °F
Precip. -- in
7:28 AM 6:24 PM
Waning Crescent, 12% visible
Pressure 29.82 in
Visibility 4.0 miles
Clouds Overcast 4500 ft
Dew Point 56 °F
Humidity 80%
Rainfall 0.05 in
Snow Depth Not available.
UV 0 out of 12
Pollen 2.90 out of 12
Air Quality Not available.
Flu Activity Sporadic
METAR KACV 200753Z AUTO 19006KT 4SM RA OVC045 17/13 A2981 RMK AO2 RAB0658E13B34 SLP097 P0005 T01670133 402060139

More Conditions Fewer Conditions

Pressure 29.82 in
Visibility 4.0 miles
Clouds Overcast 4500 ft
Dew Point 56 °F
Humidity 80%
Rainfall 0.05 in
Snow Depth Not available.
UV 0 out of 12
Pollen 2.90 out of 12
Air Quality Not available.
Flu Activity Sporadic
METAR KACV 200753Z AUTO 19006KT 4SM RA OVC045 17/13 A2981 RMK AO2 RAB0658E13B34 SLP097 P0005 T01670133 402060139

More Conditions Fewer Conditions

10-Day Weather Forecast

Almanac

Astronomy

Oct. 20, 2014 Rise Set
Actual Time 7:28 AM PDT 6:24 PM PDT
Civil Twilight 7:01 AM PDT 6:52 PM PDT
Nautical Twilight 6:29 AM PDT 7:23 PM PDT
Astronomical Twilight 5:57 AM PDT 7:55 PM PDT
Moon 4:21 AM PDT 4:50 PM PDT
Length of Visible Light 11h 50m
Length of Day
10h 55m
Waning Crescent, 12% of the Moon is Illuminated
Today
Waning Crescent
Oct 23
New
Oct 30
First Quarter
Nov 6
Full
Nov 14
Last Quarter

Today's Extremes

State Highs State Lows

Community

WunderPhotos

Upload Photos

1,763,316 photos uploaded!

Nearby

Snow Depth

Station Depth Elevation
Adin Mountain 0 in 6200 ft
Independence Lake 0 in 8450 ft
Tahoe City Cross 0 in 6750 ft
Rubicon #2 1 in 7500 ft
Fallen Leaf 0 in 6300 ft

Earthquake Activity

City Distance Mag. Time & Date
Cobb, California 130 miles 2.5 9:25 PM PDT
2014-10-19
Rio Dell, California 75 miles 4.2 7:24 AM PDT
2014-10-19
Minimum magnitude displayed is 2.5.

Coastal Water Temperatures

Place Temperature
No Stations Reporting

Nearby Weather Stations